29分钟前
罗盘
风向 的 风向 130° 维多利亚国际机场 9/27
风: 12 千吨, 4 beaufort
0 0 0.17778093859221 500 0.32299085377319 1.500 0.47075341907445 3.000 0.62138884920159 5.000 0.8022287624727 8.000 0.90566318494517 10.000
FEW 1.600 ft
FEW 3.200 ft
BKN 5.600 ft
BKN 7.500 ft
METAR CYYJ 261716Z 13012KT 15SM -RA FEW016 FEW032 BKN056 BKN075 10/10 A2962 RMK SC1SC1SC5AC1 SC TR SLP031

METAR定义 | 嵌入

24小时趋势

航班类别VFRLIFR
温度11 °C9 °C
风速20 千吨0 千吨
能见度32 公里0 米

更多历史数据

下载我们的安卓应用程序

从你的主屏幕上轻松地访问你的航空天气。
只需一次付费,您就可以获得无广告的体验。

您会帮助我们保持Metar-Taf.com正常运行吗?
您的贡献有助于网站的进一步开发并支付费用。

没有更多广告

您是捐款5美元还是更多?然后,我们将永远不会再向您展示广告,这是我们永恒的感谢!
捐赠前先登录

METAR 维多利亚国际机场

维多利亚国际机场是Victoria,加拿大中的大型机场。 机场有{a,plural,=1{一条跑道} other{#跑道}}: 3/21, 9/27 和 14/32

该报告是针对2021年10月26日 10:16, 当地时间上的维多利亚国际机场所做的。

机场观察

风来自南东 (130°)方向,速度为12 千吨。

可见度为24 公里。

有几云在1.600 ft的高度, 几云在3.200 ft的高度, 碎云在5.600 ft的高度 和 碎云在7.500 ft的高度。 破损或更高的上限为5.600 ft。

当前天气为光 雨。 温度为10 °C,阵风为6 °C。 露点为10 °C,相对湿度为100%。 海平面上的气压为1003 压力 (QNH)。

评论

  • 海平面压力为1003,1 压力 (SLP031)
  • SC1SC1SC5AC1 SC TR

白天

今天,太阳从07:51升起,在18:03降落。 这适用于维多利亚国际机场,世界夏令时可能有所不同。 当地时间与世界标准时间之间的时差为-7 小时。 夏令时目前正在进行中。

公司介绍

在这个机场,你可以找到跳伞中心 和 飞行学校。 这个机场上的公司有Capital City Skydiving 和 Pacific Sky Aviation。

体会

到Vliegles.nl去找飞行课程,跳伞和其他飞行体验。 浏览页面,了解维多利亚国际机场附近所有可用的活动。 你也可以使用搜索功能来寻找你所在地附近的特定飞行课程、跳伞或其他飞行体验。

您是否要在网站上维多利亚国际机场飞行的天气? 阅读更多   自由!